createdAt,value
2023-02-25T03:24:15.430Z,5.20
2023-02-25T03:26:42.812Z,5.30
2023-02-25T03:29:17.605Z,5.10
2023-02-25T03:32:09.278Z,4.90
2023-02-25T03:34:44.816Z,4.90
2023-02-25T03:37:17.202Z,4.90
2023-02-25T03:39:49.263Z,4.90
2023-02-25T03:42:21.448Z,4.90
2023-02-25T03:44:56.077Z,4.80
2023-02-25T03:47:24.530Z,4.80
2023-02-25T03:50:02.074Z,4.80
2023-02-25T03:52:29.894Z,4.80
2023-02-25T03:54:58.634Z,4.80
2023-02-25T03:57:36.406Z,4.70
2023-02-25T04:00:15.523Z,4.70
2023-02-25T04:02:42.561Z,4.70
2023-02-25T04:05:10.459Z,4.80
2023-02-25T04:07:39.543Z,4.80
2023-02-25T04:10:08.197Z,4.80
2023-02-25T04:12:35.037Z,4.80
2023-02-25T04:15:01.957Z,4.80
2023-02-25T04:17:28.625Z,4.80
2023-02-25T04:19:57.750Z,4.80
2023-02-25T04:22:24.459Z,4.80
2023-02-25T04:24:51.172Z,4.80
2023-02-25T04:27:17.844Z,4.80
2023-02-25T04:29:49.146Z,4.70
2023-02-25T04:32:15.944Z,4.70
2023-02-25T04:34:44.956Z,4.90
2023-02-25T04:37:11.622Z,4.80
2023-02-25T04:39:38.366Z,4.70
2023-02-25T04:42:05.316Z,4.80
2023-02-25T04:44:34.710Z,4.80
2023-02-25T04:47:01.409Z,4.80
2023-02-25T04:49:28.181Z,4.80
2023-02-25T04:51:55.012Z,4.70
2023-02-25T04:54:22.368Z,4.80
2023-02-25T04:56:49.433Z,4.80
2023-02-25T04:59:16.622Z,4.80
2023-02-25T05:01:48.415Z,4.70
2023-02-25T05:04:15.311Z,4.60
2023-02-25T05:06:41.994Z,4.60
2023-02-25T05:09:10.350Z,4.60
2023-02-25T05:11:37.254Z,4.60
2023-02-25T05:14:08.607Z,4.60
2023-02-25T05:16:35.370Z,4.60
2023-02-25T05:19:02.176Z,4.60
2023-02-25T05:21:29.465Z,4.60
2023-02-25T05:23:56.629Z,4.70
2023-02-25T05:26:26.273Z,4.70
2023-02-25T05:28:55.038Z,4.80
2023-02-25T05:31:23.545Z,4.80
2023-02-25T05:33:50.822Z,4.80
2023-02-25T05:36:18.075Z,4.80
2023-02-25T05:38:47.496Z,4.80
2023-02-25T05:41:15.410Z,4.80
2023-02-25T05:43:45.845Z,4.80
2023-02-25T05:46:13.919Z,4.90
2023-02-25T05:48:42.722Z,4.90
2023-02-25T05:51:16.306Z,4.80
2023-02-25T05:53:44.781Z,4.80
2023-02-25T05:56:14.468Z,4.70
2023-02-25T05:58:41.463Z,4.70
2023-02-25T06:01:13.445Z,4.70
2023-02-25T06:03:44.090Z,4.70
2023-02-25T06:06:15.489Z,4.70
2023-02-25T06:08:46.374Z,4.70
2023-02-25T06:11:19.567Z,4.70
2023-02-25T06:13:52.793Z,4.70
2023-02-25T06:16:20.519Z,4.70
2023-02-25T06:18:48.506Z,4.70
2023-02-25T06:21:17.893Z,4.80
2023-02-25T06:23:45.306Z,4.80
2023-02-25T06:26:13.935Z,4.70
2023-02-25T06:28:40.701Z,4.70
2023-02-25T06:31:10.953Z,4.70
2023-02-25T06:33:39.153Z,4.70
2023-02-25T06:36:07.072Z,4.70
2023-02-25T06:38:35.036Z,4.70
2023-02-25T06:41:08.864Z,4.70
2023-02-25T06:43:36.401Z,4.80
2023-02-25T06:46:12.624Z,4.80
2023-02-25T06:48:44.122Z,4.80
2023-02-25T06:51:12.760Z,4.70
2023-02-25T06:53:41.377Z,4.80
2023-02-25T06:56:09.021Z,4.80
2023-02-25T06:58:37.083Z,4.70
2023-02-25T07:01:12.301Z,4.70
2023-02-25T07:03:43.506Z,4.80
2023-02-25T07:06:10.851Z,4.70
2023-02-25T07:08:40.098Z,4.70
2023-02-25T07:11:25.502Z,4.80
2023-02-25T07:13:54.715Z,4.80
2023-02-25T07:16:26.471Z,4.80
2023-02-25T07:18:55.837Z,4.90
2023-02-25T07:21:29.216Z,5.00
2023-02-25T07:23:56.199Z,5.00
2023-02-25T07:26:28.167Z,5.00
2023-02-25T07:28:57.039Z,5.00
2023-02-25T07:31:27.440Z,5.00
2023-02-25T07:33:57.633Z,5.00
2023-02-25T07:36:30.694Z,5.10
2023-02-25T07:39:02.007Z,5.00
2023-02-25T07:41:36.017Z,5.00
2023-02-25T07:44:09.375Z,5.00
2023-02-25T07:46:39.333Z,5.10
2023-02-25T07:49:10.772Z,5.10
2023-02-25T07:51:37.521Z,5.10
2023-02-25T07:54:04.490Z,5.10
2023-02-25T07:56:31.996Z,5.10
2023-02-25T07:58:58.803Z,5.10
2023-02-25T08:01:31.617Z,5.10
2023-02-25T08:04:00.671Z,5.10
2023-02-25T08:06:27.936Z,5.20
2023-02-25T08:08:55.232Z,5.10
2023-02-25T08:11:24.787Z,5.20
2023-02-25T08:13:52.184Z,5.20
2023-02-25T08:16:20.786Z,5.20
2023-02-25T08:18:48.292Z,5.20
2023-02-25T08:21:18.126Z,5.20
2023-02-25T08:23:44.951Z,5.20
2023-02-25T08:26:11.630Z,5.30
2023-02-25T08:28:39.634Z,5.30
2023-02-25T08:31:07.996Z,5.30
2023-02-25T08:33:34.901Z,5.40
2023-02-25T08:36:17.027Z,5.50
2023-02-25T08:38:44.544Z,5.50
2023-02-25T08:41:13.556Z,5.50
2023-02-25T08:43:41.441Z,5.60
2023-02-25T08:46:10.694Z,5.60
2023-02-25T08:48:42.298Z,5.60
2023-02-25T08:51:10.349Z,5.70
2023-02-25T08:53:38.828Z,5.80
2023-02-25T08:56:09.455Z,5.80
2023-02-25T08:58:37.223Z,5.80
2023-02-25T09:01:17.764Z,5.90
2023-02-25T09:03:53.716Z,5.90
2023-02-25T09:06:25.522Z,6.00
2023-02-25T09:08:53.163Z,6.00
2023-02-25T09:11:21.608Z,6.00
2023-02-25T09:13:48.610Z,6.10
2023-02-25T09:16:20.043Z,6.00
2023-02-25T09:18:48.221Z,6.20
2023-02-25T09:21:18.145Z,6.30
2023-02-25T09:23:46.590Z,6.30
2023-02-25T09:26:14.166Z,6.30
2023-02-25T09:28:40.849Z,6.30
2023-02-25T09:31:09.912Z,6.30
2023-02-25T09:33:37.905Z,6.30
2023-02-25T09:36:14.241Z,6.10
2023-02-25T09:38:42.623Z,6.00
2023-02-25T09:41:22.048Z,5.90
2023-02-25T09:44:00.833Z,5.50
2023-02-25T09:46:30.381Z,5.40
2023-02-25T09:49:10.858Z,5.40
2023-02-25T09:51:43.536Z,5.40
2023-02-25T09:54:10.179Z,5.40
2023-02-25T09:56:38.444Z,5.40
2023-02-25T09:59:13.444Z,5.40
2023-02-25T10:01:59.196Z,5.40
2023-02-25T10:04:46.612Z,5.40
2023-02-25T10:07:22.449Z,5.30
2023-02-25T10:10:07.913Z,5.30
2023-02-25T10:12:43.459Z,5.30
2023-02-25T10:15:25.260Z,5.40
2023-02-25T10:18:16.906Z,5.40
2023-02-25T10:21:18.675Z,5.50
2023-02-25T10:24:07.566Z,5.60
2023-02-25T10:26:39.319Z,5.70
2023-02-25T10:29:11.978Z,5.70
2023-02-25T10:31:45.665Z,5.70
2023-02-25T10:34:25.940Z,5.70
2023-02-25T10:36:57.027Z,5.80
2023-02-25T10:39:25.244Z,5.90
2023-02-25T10:41:52.155Z,6.00
2023-02-25T10:44:19.217Z,6.00
2023-02-25T10:46:57.802Z,6.00
2023-02-25T10:49:27.584Z,6.10
2023-02-25T10:52:06.283Z,6.30
2023-02-25T10:54:35.361Z,6.40
2023-02-25T10:57:08.619Z,6.30
2023-02-25T10:59:39.941Z,6.30
2023-02-25T11:02:30.148Z,6.40
2023-02-25T11:04:57.364Z,6.60
2023-02-25T11:07:32.932Z,6.70
2023-02-25T11:10:13.341Z,6.90
2023-02-25T11:12:53.051Z,7.20
2023-02-25T11:15:45.678Z,7.30
2023-02-25T11:18:19.402Z,7.50
2023-02-25T11:20:55.848Z,7.40
2023-02-25T11:23:38.321Z,7.40
2023-02-25T11:26:08.260Z,7.40
2023-02-25T11:28:46.304Z,7.40
2023-02-25T11:31:19.237Z,7.30
2023-02-25T11:33:59.281Z,7.30
2023-02-25T11:36:33.764Z,7.30
2023-02-25T11:39:22.286Z,7.20
2023-02-25T11:41:52.053Z,7.00
2023-02-25T11:44:29.562Z,6.80
2023-02-25T11:47:49.445Z,6.50
2023-02-25T11:50:30.032Z,6.00
2023-02-25T11:53:37.564Z,5.70
2023-02-25T11:56:16.150Z,5.60
2023-02-25T11:59:07.169Z,5.40
2023-02-25T12:01:51.810Z,5.30
2023-02-25T12:04:58.820Z,5.40
2023-02-25T12:08:05.224Z,5.60
2023-02-25T12:11:07.408Z,5.70
2023-02-25T12:14:00.857Z,5.80
2023-02-25T12:16:51.828Z,6.00
2023-02-25T12:19:48.881Z,6.10
2023-02-25T12:22:58.882Z,6.10
2023-02-25T12:25:54.953Z,6.20
2023-02-25T12:28:51.276Z,6.20
2023-02-25T12:31:50.513Z,6.30
2023-02-25T12:34:55.677Z,6.30
2023-02-25T12:37:53.054Z,6.40
2023-02-25T12:40:49.070Z,6.50
2023-02-25T12:43:46.037Z,6.70
2023-02-25T12:46:38.309Z,6.70
2023-02-25T12:49:33.975Z,6.70
2023-02-25T12:52:09.492Z,6.90
2023-02-25T12:54:55.126Z,7.10
2023-02-25T12:57:55.811Z,7.00
2023-02-25T13:00:55.748Z,7.10
2023-02-25T13:03:46.592Z,7.20
2023-02-25T13:06:44.210Z,7.40
2023-02-25T13:09:16.356Z,7.60
2023-02-25T13:12:11.141Z,7.60
2023-02-25T13:14:53.505Z,7.30
2023-02-25T13:17:24.051Z,7.10
2023-02-25T13:20:12.613Z,6.90
2023-02-25T13:23:13.443Z,6.70
2023-02-25T13:25:40.068Z,6.60
2023-02-25T13:28:46.699Z,6.40
2023-02-25T13:31:50.687Z,6.30
2023-02-25T13:34:37.263Z,6.20
2023-02-25T13:37:28.954Z,6.40
2023-02-25T13:40:20.398Z,6.50
2023-02-25T13:43:27.742Z,6.60
2023-02-25T13:46:10.061Z,6.70
2023-02-25T13:48:45.073Z,6.80
2023-02-25T13:51:24.866Z,6.70
2023-02-25T13:54:11.899Z,6.40
2023-02-25T13:57:08.899Z,6.20
2023-02-25T13:59:57.841Z,6.00
2023-02-25T14:02:50.293Z,5.90
2023-02-25T14:06:04.021Z,5.80
2023-02-25T14:09:02.005Z,5.90
2023-02-25T14:12:14.942Z,5.90
2023-02-25T14:14:53.908Z,5.90
2023-02-25T14:17:32.915Z,5.80
2023-02-25T14:20:23.725Z,6.00
2023-02-25T14:23:05.482Z,6.10
2023-02-25T14:26:15.359Z,6.30
2023-02-25T14:28:57.956Z,6.60
2023-02-25T14:31:32.057Z,6.90
2023-02-25T14:37:30.565Z,8.70
2023-02-25T14:40:12.942Z,9.00
2023-02-25T14:45:12.687Z,10.10
2023-02-25T14:47:55.434Z,10.20
2023-02-25T14:50:53.915Z,10.20
2023-02-25T14:54:26.482Z,11.10
2023-02-25T14:57:20.914Z,11.20
2023-02-25T15:00:14.893Z,12.60
2023-02-25T15:03:08.897Z,12.70
2023-02-25T15:06:03.388Z,13.70
2023-02-25T15:09:27.849Z,12.80
2023-02-25T15:12:05.875Z,12.50
2023-02-25T15:14:53.895Z,12.50
2023-02-25T15:17:23.684Z,12.90
2023-02-25T15:20:31.997Z,14.00
2023-02-25T15:23:11.899Z,14.80
2023-02-25T15:25:46.101Z,12.20
2023-02-25T15:28:30.668Z,11.60
2023-02-25T15:31:00.640Z,10.30
2023-02-25T15:33:45.628Z,9.30
2023-02-25T15:36:15.302Z,8.60
2023-02-25T15:38:44.401Z,7.70
2023-02-25T15:41:29.714Z,7.50
2023-02-25T15:44:08.339Z,7.30
2023-02-25T15:46:35.115Z,7.10
2023-02-25T15:49:08.041Z,6.80
2023-02-25T15:51:55.825Z,6.70
2023-02-25T15:54:28.409Z,6.70
2023-02-25T15:57:24.644Z,6.70
2023-02-25T15:59:58.149Z,6.60
2023-02-25T16:02:30.375Z,6.60
2023-02-25T16:07:44.008Z,6.20
2023-02-25T16:10:28.733Z,6.10
2023-02-25T16:12:57.593Z,6.00
2023-02-25T16:15:32.865Z,5.80
2023-02-25T16:18:10.493Z,5.90
2023-02-25T16:20:48.566Z,5.80
2023-02-25T16:23:20.942Z,5.80
2023-02-25T16:26:03.146Z,5.70
2023-02-25T16:29:06.462Z,5.70
2023-02-25T16:31:39.015Z,5.70
2023-02-25T16:34:29.811Z,5.70
2023-02-25T16:37:25.658Z,5.60
2023-02-25T16:39:52.763Z,5.50
2023-02-25T16:42:21.396Z,5.40
2023-02-25T16:45:01.066Z,5.40
2023-02-25T16:47:34.143Z,5.40
2023-02-25T16:50:04.599Z,5.30
2023-02-25T16:52:38.342Z,5.30
2023-02-25T16:55:12.312Z,5.20
2023-02-25T16:57:39.284Z,5.00
2023-02-25T17:00:18.929Z,5.00
2023-02-25T17:02:50.748Z,5.00
2023-02-25T17:05:36.615Z,4.90
2023-02-25T17:08:13.946Z,4.80
2023-02-25T17:10:58.723Z,4.70
2023-02-25T17:13:28.374Z,4.70
2023-02-25T17:15:55.536Z,4.70
2023-02-25T17:18:36.781Z,4.70
2023-02-25T17:21:33.725Z,4.70
2023-02-25T17:24:02.878Z,4.60
2023-02-25T17:26:30.834Z,4.60
2023-02-25T17:29:02.206Z,4.50
2023-02-25T17:31:30.544Z,4.40
2023-02-25T17:34:04.594Z,4.50
2023-02-25T17:36:39.211Z,4.40
2023-02-25T17:39:14.576Z,4.40
2023-02-25T17:41:42.337Z,4.40
2023-02-25T17:44:33.238Z,4.40
2023-02-25T17:47:03.211Z,4.40
2023-02-25T17:49:34.147Z,4.40
2023-02-25T17:52:22.780Z,4.30
2023-02-25T17:54:59.229Z,4.40
2023-02-25T17:57:28.152Z,4.30
2023-02-25T18:00:04.890Z,4.30
2023-02-25T18:02:37.940Z,4.30
2023-02-25T18:05:18.359Z,4.20
2023-02-25T18:08:09.436Z,4.20
2023-02-25T18:10:36.060Z,4.20
2023-02-25T18:13:04.907Z,4.10
2023-02-25T18:15:34.612Z,4.10
2023-02-25T18:18:04.536Z,4.10
2023-02-25T18:20:46.222Z,4.00
2023-02-25T18:23:20.020Z,4.10
2023-02-25T18:26:11.188Z,4.00
2023-02-25T18:28:38.977Z,4.00
2023-02-25T18:31:06.160Z,4.00
2023-02-25T18:33:35.535Z,3.90
2023-02-25T18:36:06.052Z,4.00
2023-02-25T18:38:33.588Z,3.90
2023-02-25T18:41:02.706Z,3.90
2023-02-25T18:43:34.956Z,3.90
2023-02-25T18:46:02.841Z,3.90
2023-02-25T18:48:32.282Z,3.90
2023-02-25T18:51:01.627Z,3.90
2023-02-25T18:53:28.936Z,3.90
2023-02-25T18:55:59.970Z,3.90
2023-02-25T18:58:26.890Z,3.80
2023-02-25T19:00:56.806Z,3.80
2023-02-25T19:03:37.728Z,3.80
2023-02-25T19:06:05.091Z,3.80
2023-02-25T19:08:32.024Z,3.80
2023-02-25T19:10:58.826Z,3.80
2023-02-25T19:13:34.625Z,3.80
2023-02-25T19:16:01.750Z,3.80
2023-02-25T19:18:29.310Z,3.70
2023-02-25T19:20:58.451Z,3.70
2023-02-25T19:23:25.248Z,3.60
2023-02-25T19:26:00.626Z,3.60
2023-02-25T19:28:27.622Z,3.50
2023-02-25T19:30:56.624Z,3.50
2023-02-25T19:33:23.338Z,3.50
2023-02-25T19:35:50.245Z,3.40
2023-02-25T19:38:22.062Z,3.40
2023-02-25T19:40:49.412Z,3.40
2023-02-25T19:43:17.807Z,3.50
2023-02-25T19:45:44.975Z,3.50
2023-02-25T19:48:13.987Z,3.50
2023-02-25T19:50:41.658Z,3.40
2023-02-25T19:53:11.226Z,3.40
2023-02-25T19:55:39.071Z,3.40
2023-02-25T19:58:06.157Z,3.40
2023-02-25T20:00:35.452Z,3.40
2023-02-25T20:03:04.730Z,3.40
2023-02-25T20:05:34.956Z,3.30
2023-02-25T20:08:02.287Z,3.30
2023-02-25T20:10:29.131Z,3.30
2023-02-25T20:12:55.935Z,3.30
2023-02-25T20:15:22.753Z,3.20
2023-02-25T20:17:54.839Z,3.30
2023-02-25T20:20:24.093Z,3.30
2023-02-25T20:22:55.260Z,3.20
2023-02-25T20:25:22.099Z,3.10
2023-02-25T20:27:48.935Z,3.10
2023-02-25T20:30:17.665Z,3.00
2023-02-25T20:32:45.455Z,3.00
2023-02-25T20:35:20.415Z,3.00
2023-02-25T20:38:08.282Z,3.00
2023-02-25T20:40:35.227Z,3.00
2023-02-25T20:43:04.553Z,2.90
2023-02-25T20:45:31.743Z,2.90
2023-02-25T20:48:00.826Z,2.90
2023-02-25T20:50:31.007Z,2.80
2023-02-25T20:52:58.625Z,2.70
2023-02-25T20:55:25.404Z,2.70
2023-02-25T20:57:52.149Z,2.60
2023-02-25T21:00:21.748Z,2.50
2023-02-25T21:02:50.665Z,2.50
2023-02-25T21:05:17.350Z,2.50
2023-02-25T21:07:46.514Z,2.50
2023-02-25T21:10:13.330Z,2.40
2023-02-25T21:12:40.525Z,2.40
2023-02-25T21:15:07.842Z,2.50
2023-02-25T21:17:34.615Z,2.40
2023-02-25T21:20:01.377Z,2.50
2023-02-25T21:22:28.066Z,2.40
2023-02-25T21:27:24.294Z,2.20
2023-02-25T21:29:51.155Z,2.10
2023-02-25T21:32:18.232Z,2.30
2023-02-25T21:34:45.075Z,2.10
2023-02-25T21:37:11.761Z,2.10
2023-02-25T21:39:41.145Z,1.90
2023-02-25T21:42:08.064Z,2.00
2023-02-25T21:44:34.814Z,2.00
2023-02-25T21:47:01.565Z,1.90
2023-02-25T21:49:30.848Z,1.90
2023-02-25T21:51:58.335Z,1.90
2023-02-25T21:54:25.186Z,1.90
2023-02-25T21:56:54.118Z,1.90
2023-02-25T21:59:23.374Z,1.80
2023-02-25T22:01:50.165Z,1.90
2023-02-25T22:04:17.882Z,1.80
2023-02-25T22:06:46.975Z,1.80
2023-02-25T22:09:13.947Z,1.60
2023-02-25T22:11:45.070Z,1.60
2023-02-25T22:14:11.993Z,1.50
2023-02-25T22:16:39.687Z,1.50
2023-02-25T22:19:08.986Z,1.50
2023-02-25T22:21:36.591Z,1.40
2023-02-25T22:24:04.864Z,1.50
2023-02-25T22:26:34.383Z,1.40
2023-02-25T22:29:03.794Z,1.40
2023-02-25T22:31:30.711Z,1.40
2023-02-25T22:33:57.739Z,1.40
2023-02-25T22:36:27.642Z,1.40
2023-02-25T22:38:59.329Z,1.50
2023-02-25T22:41:28.785Z,1.50
2023-02-25T22:43:59.426Z,1.50
2023-02-25T22:46:27.881Z,1.50
2023-02-25T22:48:55.595Z,1.60
2023-02-25T22:51:30.168Z,1.70
2023-02-25T22:54:00.243Z,1.70
2023-02-25T22:56:27.398Z,1.80
2023-02-25T22:58:54.714Z,1.90
2023-02-25T23:01:23.227Z,1.90
2023-02-25T23:03:50.829Z,1.90
2023-02-25T23:06:19.434Z,2.00
2023-02-25T23:08:46.393Z,2.00
2023-02-25T23:11:17.840Z,2.00
2023-02-25T23:13:48.439Z,2.10
2023-02-25T23:16:18.375Z,2.20
2023-02-25T23:18:46.914Z,2.20
2023-02-25T23:21:19.189Z,2.20
2023-02-25T23:23:48.194Z,2.10
2023-02-25T23:26:17.525Z,1.90
2023-02-25T23:28:44.969Z,2.10
2023-02-25T23:31:26.820Z,2.00
2023-02-25T23:34:01.315Z,2.00
2023-02-25T23:36:28.493Z,1.90
2023-02-25T23:39:00.321Z,2.00
2023-02-25T23:41:29.943Z,1.90
2023-02-25T23:43:58.695Z,1.90
2023-02-25T23:46:27.276Z,1.90
2023-02-25T23:48:55.804Z,1.80
2023-02-25T23:51:23.132Z,1.80
2023-02-25T23:53:58.787Z,1.70
2023-02-25T23:56:27.164Z,1.70
2023-02-25T23:58:54.882Z,1.70
